sensor_id;sensor_type;location;lat;lon;timestamp;temperature;humidity
1307;DHT22;646;48.696;9.114;2022-07-29T00:01:00;18.20;99.90
1307;DHT22;646;48.696;9.114;2022-07-29T00:03:26;18.30;99.90
1307;DHT22;646;48.696;9.114;2022-07-29T00:05:51;18.10;99.90
1307;DHT22;646;48.696;9.114;2022-07-29T00:08:18;17.80;99.90
1307;DHT22;646;48.696;9.114;2022-07-29T00:10:44;17.90;99.90
1307;DHT22;646;48.696;9.114;2022-07-29T00:13:10;18.10;99.90
1307;DHT22;646;48.696;9.114;2022-07-29T00:15:35;17.70;99.90
1307;DHT22;646;48.696;9.114;2022-07-29T00:18:01;17.80;99.90
1307;DHT22;646;48.696;9.114;2022-07-29T00:20:26;17.90;99.90
1307;DHT22;646;48.696;9.114;2022-07-29T00:22:52;17.80;99.90
1307;DHT22;646;48.696;9.114;2022-07-29T00:25:18;18.00;99.90
1307;DHT22;646;48.696;9.114;2022-07-29T00:27:44;17.80;99.90
1307;DHT22;646;48.696;9.114;2022-07-29T00:30:11;17.80;99.90
1307;DHT22;646;48.696;9.114;2022-07-29T00:32:37;17.60;99.90
1307;DHT22;646;48.696;9.114;2022-07-29T00:35:03;17.50;99.90
1307;DHT22;646;48.696;9.114;2022-07-29T00:37:47;17.70;99.90
1307;DHT22;646;48.696;9.114;2022-07-29T00:40:13;17.60;99.90
1307;DHT22;646;48.696;9.114;2022-07-29T00:42:46;17.60;99.90
1307;DHT22;646;48.696;9.114;2022-07-29T00:45:13;17.40;99.90
1307;DHT22;646;48.696;9.114;2022-07-29T00:47:39;17.30;99.90
1307;DHT22;646;48.696;9.114;2022-07-29T00:50:06;17.20;99.90
1307;DHT22;646;48.696;9.114;2022-07-29T00:52:33;17.50;99.90
1307;DHT22;646;48.696;9.114;2022-07-29T00:55:01;17.30;99.90
1307;DHT22;646;48.696;9.114;2022-07-29T00:57:27;17.40;99.90
1307;DHT22;646;48.696;9.114;2022-07-29T00:59:53;17.60;99.90
1307;DHT22;646;48.696;9.114;2022-07-29T01:02:18;17.50;99.90
1307;DHT22;646;48.696;9.114;2022-07-29T01:04:44;17.50;99.90
1307;DHT22;646;48.696;9.114;2022-07-29T01:07:10;17.30;99.90
1307;DHT22;646;48.696;9.114;2022-07-29T01:09:37;17.40;99.90
1307;DHT22;646;48.696;9.114;2022-07-29T01:12:03;17.40;99.90
1307;DHT22;646;48.696;9.114;2022-07-29T01:14:30;17.30;99.90
1307;DHT22;646;48.696;9.114;2022-07-29T01:17:09;17.30;99.90
1307;DHT22;646;48.696;9.114;2022-07-29T01:19:49;17.40;99.90
1307;DHT22;646;48.696;9.114;2022-07-29T01:25:10;17.50;99.90
1307;DHT22;646;48.696;9.114;2022-07-29T01:30:03;17.30;99.90
1307;DHT22;646;48.696;9.114;2022-07-29T01:32:33;17.40;99.90
1307;DHT22;646;48.696;9.114;2022-07-29T01:35:07;17.30;99.90
1307;DHT22;646;48.696;9.114;2022-07-29T01:38:02;16.90;99.90
1307;DHT22;646;48.696;9.114;2022-07-29T01:40:48;17.20;99.90
1307;DHT22;646;48.696;9.114;2022-07-29T01:43:21;17.10;99.90
1307;DHT22;646;48.696;9.114;2022-07-29T01:46:01;17.00;99.90
1307;DHT22;646;48.696;9.114;2022-07-29T01:51:20;17.10;99.90
1307;DHT22;646;48.696;9.114;2022-07-29T01:53:54;16.70;99.90
1307;DHT22;646;48.696;9.114;2022-07-29T01:56:23;17.10;99.90
1307;DHT22;646;48.696;9.114;2022-07-29T01:58:49;16.60;99.90
1307;DHT22;646;48.696;9.114;2022-07-29T02:01:17;17.00;99.90
1307;DHT22;646;48.696;9.114;2022-07-29T02:03:45;16.70;99.90
1307;DHT22;646;48.696;9.114;2022-07-29T02:06:11;16.70;99.90
1307;DHT22;646;48.696;9.114;2022-07-29T02:08:38;16.90;99.90
1307;DHT22;646;48.696;9.114;2022-07-29T02:11:05;16.70;99.90
1307;DHT22;646;48.696;9.114;2022-07-29T02:13:34;17.10;99.90
1307;DHT22;646;48.696;9.114;2022-07-29T02:16:04;16.60;99.90
1307;DHT22;646;48.696;9.114;2022-07-29T02:18:32;16.90;99.90
1307;DHT22;646;48.696;9.114;2022-07-29T02:20:59;16.60;99.90
1307;DHT22;646;48.696;9.114;2022-07-29T02:23:26;16.60;99.90
1307;DHT22;646;48.696;9.114;2022-07-29T02:25:54;16.70;99.90
1307;DHT22;646;48.696;9.114;2022-07-29T02:28:28;16.80;99.90
1307;DHT22;646;48.696;9.114;2022-07-29T02:30:57;16.60;99.90
1307;DHT22;646;48.696;9.114;2022-07-29T02:33:24;16.70;99.90
1307;DHT22;646;48.696;9.114;2022-07-29T02:35:50;16.60;99.90
1307;DHT22;646;48.696;9.114;2022-07-29T02:38:18;16.70;99.90
1307;DHT22;646;48.696;9.114;2022-07-29T02:41:08;16.60;99.90
1307;DHT22;646;48.696;9.114;2022-07-29T02:43:35;16.60;99.90
1307;DHT22;646;48.696;9.114;2022-07-29T02:46:08;16.20;99.90
1307;DHT22;646;48.696;9.114;2022-07-29T02:48:48;16.30;99.90
1307;DHT22;646;48.696;9.114;2022-07-29T02:51:24;16.60;99.90
1307;DHT22;646;48.696;9.114;2022-07-29T02:53:56;16.50;99.90
1307;DHT22;646;48.696;9.114;2022-07-29T02:56:28;16.40;99.90
1307;DHT22;646;48.696;9.114;2022-07-29T02:59:03;16.20;99.90
1307;DHT22;646;48.696;9.114;2022-07-29T03:01:31;16.20;99.90
1307;DHT22;646;48.696;9.114;2022-07-29T03:04:01;16.50;99.90
1307;DHT22;646;48.696;9.114;2022-07-29T03:06:28;16.10;99.90
1307;DHT22;646;48.696;9.114;2022-07-29T03:08:57;16.50;99.90
1307;DHT22;646;48.696;9.114;2022-07-29T03:11:24;16.50;99.90
1307;DHT22;646;48.696;9.114;2022-07-29T03:13:51;16.30;99.90
1307;DHT22;646;48.696;9.114;2022-07-29T03:16:18;16.60;99.90
1307;DHT22;646;48.696;9.114;2022-07-29T03:18:44;16.30;99.90
1307;DHT22;646;48.696;9.114;2022-07-29T03:21:10;16.60;99.90
1307;DHT22;646;48.696;9.114;2022-07-29T03:23:36;16.20;99.90
1307;DHT22;646;48.696;9.114;2022-07-29T03:26:01;16.40;99.90
1307;DHT22;646;48.696;9.114;2022-07-29T03:28:27;16.20;99.90
1307;DHT22;646;48.696;9.114;2022-07-29T03:30:53;16.30;99.90
1307;DHT22;646;48.696;9.114;2022-07-29T03:33:19;16.20;99.90
1307;DHT22;646;48.696;9.114;2022-07-29T03:35:44;16.30;99.90
1307;DHT22;646;48.696;9.114;2022-07-29T03:38:10;16.30;99.90
1307;DHT22;646;48.696;9.114;2022-07-29T03:40:40;16.40;99.90
1307;DHT22;646;48.696;9.114;2022-07-29T03:43:07;16.10;99.90
1307;DHT22;646;48.696;9.114;2022-07-29T03:45:34;16.20;99.90
1307;DHT22;646;48.696;9.114;2022-07-29T03:48:05;16.20;99.90
1307;DHT22;646;48.696;9.114;2022-07-29T03:50:33;16.00;99.90
1307;DHT22;646;48.696;9.114;2022-07-29T03:52:59;16.30;99.90
1307;DHT22;646;48.696;9.114;2022-07-29T03:55:26;16.00;99.90
1307;DHT22;646;48.696;9.114;2022-07-29T03:57:54;16.00;99.90
1307;DHT22;646;48.696;9.114;2022-07-29T04:00:20;15.90;99.90
1307;DHT22;646;48.696;9.114;2022-07-29T04:02:47;15.90;99.90
1307;DHT22;646;48.696;9.114;2022-07-29T04:05:14;16.00;99.90
1307;DHT22;646;48.696;9.114;2022-07-29T04:07:43;15.90;99.90
1307;DHT22;646;48.696;9.114;2022-07-29T04:10:08;15.90;99.90
1307;DHT22;646;48.696;9.114;2022-07-29T04:12:34;16.00;99.90
1307;DHT22;646;48.696;9.114;2022-07-29T04:15:00;15.90;99.90
1307;DHT22;646;48.696;9.114;2022-07-29T04:17:26;15.80;99.90
1307;DHT22;646;48.696;9.114;2022-07-29T04:19:52;15.90;99.90
1307;DHT22;646;48.696;9.114;2022-07-29T04:22:17;15.80;99.90
1307;DHT22;646;48.696;9.114;2022-07-29T04:24:43;15.90;99.90
1307;DHT22;646;48.696;9.114;2022-07-29T04:27:08;15.80;99.90
1307;DHT22;646;48.696;9.114;2022-07-29T04:29:34;15.80;99.90
1307;DHT22;646;48.696;9.114;2022-07-29T04:31:59;15.90;99.90
1307;DHT22;646;48.696;9.114;2022-07-29T04:34:25;15.90;99.90
1307;DHT22;646;48.696;9.114;2022-07-29T04:36:50;15.80;99.90
1307;DHT22;646;48.696;9.114;2022-07-29T04:39:16;15.90;99.90
1307;DHT22;646;48.696;9.114;2022-07-29T04:41:43;15.80;99.90
1307;DHT22;646;48.696;9.114;2022-07-29T04:44:08;15.90;99.90
1307;DHT22;646;48.696;9.114;2022-07-29T04:46:35;16.00;99.90
1307;DHT22;646;48.696;9.114;2022-07-29T04:49:01;16.20;99.90
1307;DHT22;646;48.696;9.114;2022-07-29T04:51:26;15.90;99.90
1307;DHT22;646;48.696;9.114;2022-07-29T04:53:52;16.10;99.90
1307;DHT22;646;48.696;9.114;2022-07-29T04:56:18;16.20;99.90
1307;DHT22;646;48.696;9.114;2022-07-29T04:58:43;16.30;99.90
1307;DHT22;646;48.696;9.114;2022-07-29T05:01:09;16.30;99.90
1307;DHT22;646;48.696;9.114;2022-07-29T05:03:34;16.40;99.90
1307;DHT22;646;48.696;9.114;2022-07-29T05:06:00;16.50;99.90
1307;DHT22;646;48.696;9.114;2022-07-29T05:08:25;16.80;99.90
1307;DHT22;646;48.696;9.114;2022-07-29T05:10:51;16.90;99.90
1307;DHT22;646;48.696;9.114;2022-07-29T05:13:16;17.00;99.90
1307;DHT22;646;48.696;9.114;2022-07-29T05:15:42;17.30;99.90
1307;DHT22;646;48.696;9.114;2022-07-29T05:18:07;17.20;99.90
1307;DHT22;646;48.696;9.114;2022-07-29T05:20:33;17.40;99.90
1307;DHT22;646;48.696;9.114;2022-07-29T05:23:01;17.40;99.90
1307;DHT22;646;48.696;9.114;2022-07-29T05:25:28;17.80;99.90
1307;DHT22;646;48.696;9.114;2022-07-29T05:27:54;17.90;99.90
1307;DHT22;646;48.696;9.114;2022-07-29T05:30:20;18.30;99.90
1307;DHT22;646;48.696;9.114;2022-07-29T05:32:45;18.60;99.90
1307;DHT22;646;48.696;9.114;2022-07-29T05:35:11;19.00;99.90
1307;DHT22;646;48.696;9.114;2022-07-29T05:37:37;19.40;99.90
1307;DHT22;646;48.696;9.114;2022-07-29T05:40:03;19.60;99.90
1307;DHT22;646;48.696;9.114;2022-07-29T05:42:29;19.60;99.90
1307;DHT22;646;48.696;9.114;2022-07-29T05:44:54;19.80;99.90
1307;DHT22;646;48.696;9.114;2022-07-29T05:47:20;20.10;99.90
1307;DHT22;646;48.696;9.114;2022-07-29T05:49:46;20.30;99.90
1307;DHT22;646;48.696;9.114;2022-07-29T05:52:12;20.90;99.90
1307;DHT22;646;48.696;9.114;2022-07-29T05:54:38;20.80;99.90
1307;DHT22;646;48.696;9.114;2022-07-29T05:57:04;20.80;99.90
1307;DHT22;646;48.696;9.114;2022-07-29T05:59:31;20.90;99.90
1307;DHT22;646;48.696;9.114;2022-07-29T06:01:56;21.30;99.90
1307;DHT22;646;48.696;9.114;2022-07-29T06:04:22;21.50;99.90
1307;DHT22;646;48.696;9.114;2022-07-29T06:06:48;21.80;99.90
1307;DHT22;646;48.696;9.114;2022-07-29T06:09:13;22.00;99.90
1307;DHT22;646;48.696;9.114;2022-07-29T06:11:40;22.30;99.90
1307;DHT22;646;48.696;9.114;2022-07-29T06:14:05;22.60;99.90
1307;DHT22;646;48.696;9.114;2022-07-29T06:16:31;22.60;99.90
1307;DHT22;646;48.696;9.114;2022-07-29T06:18:56;22.80;99.90
1307;DHT22;646;48.696;9.114;2022-07-29T06:21:22;23.10;99.90
1307;DHT22;646;48.696;9.114;2022-07-29T06:23:48;23.50;99.90
1307;DHT22;646;48.696;9.114;2022-07-29T06:26:13;23.00;99.90
1307;DHT22;646;48.696;9.114;2022-07-29T06:28:39;23.00;99.90
1307;DHT22;646;48.696;9.114;2022-07-29T06:31:05;22.90;99.90
1307;DHT22;646;48.696;9.114;2022-07-29T06:33:31;22.80;99.90
1307;DHT22;646;48.696;9.114;2022-07-29T06:35:56;23.00;99.90
1307;DHT22;646;48.696;9.114;2022-07-29T06:38:22;23.30;99.90
1307;DHT22;646;48.696;9.114;2022-07-29T06:40:48;22.90;99.90
1307;DHT22;646;48.696;9.114;2022-07-29T06:43:34;23.10;99.90
1307;DHT22;646;48.696;9.114;2022-07-29T06:46:04;23.10;99.90
1307;DHT22;646;48.696;9.114;2022-07-29T06:48:30;23.20;99.90
1307;DHT22;646;48.696;9.114;2022-07-29T06:50:56;23.50;99.90
1307;DHT22;646;48.696;9.114;2022-07-29T06:53:22;23.70;99.90
1307;DHT22;646;48.696;9.114;2022-07-29T06:55:48;23.80;99.90
1307;DHT22;646;48.696;9.114;2022-07-29T06:58:13;23.90;99.90
1307;DHT22;646;48.696;9.114;2022-07-29T07:00:41;23.80;99.90
1307;DHT22;646;48.696;9.114;2022-07-29T07:03:07;23.70;99.90
1307;DHT22;646;48.696;9.114;2022-07-29T07:05:32;23.50;99.90
1307;DHT22;646;48.696;9.114;2022-07-29T07:07:58;23.30;99.90
1307;DHT22;646;48.696;9.114;2022-07-29T07:10:23;23.70;99.90
1307;DHT22;646;48.696;9.114;2022-07-29T07:12:49;24.00;99.90
1307;DHT22;646;48.696;9.114;2022-07-29T07:15:14;23.90;99.90
1307;DHT22;646;48.696;9.114;2022-07-29T07:17:40;23.80;99.90
1307;DHT22;646;48.696;9.114;2022-07-29T07:20:06;24.00;99.90
1307;DHT22;646;48.696;9.114;2022-07-29T07:22:31;24.40;99.90
1307;DHT22;646;48.696;9.114;2022-07-29T07:24:57;24.20;99.90
1307;DHT22;646;48.696;9.114;2022-07-29T07:27:22;24.00;99.90
1307;DHT22;646;48.696;9.114;2022-07-29T07:29:48;23.90;99.90
1307;DHT22;646;48.696;9.114;2022-07-29T07:32:14;23.90;99.90
1307;DHT22;646;48.696;9.114;2022-07-29T07:34:42;23.90;99.90
1307;DHT22;646;48.696;9.114;2022-07-29T07:37:08;23.50;99.90
1307;DHT22;646;48.696;9.114;2022-07-29T07:39:33;23.50;99.90
1307;DHT22;646;48.696;9.114;2022-07-29T07:41:59;23.80;99.90
1307;DHT22;646;48.696;9.114;2022-07-29T07:44:25;24.10;99.90
1307;DHT22;646;48.696;9.114;2022-07-29T07:46:50;24.00;99.90
1307;DHT22;646;48.696;9.114;2022-07-29T07:49:16;24.40;99.90
1307;DHT22;646;48.696;9.114;2022-07-29T07:51:41;24.50;99.90
1307;DHT22;646;48.696;9.114;2022-07-29T07:54:07;24.50;99.90
1307;DHT22;646;48.696;9.114;2022-07-29T07:56:32;24.50;99.90
1307;DHT22;646;48.696;9.114;2022-07-29T07:58:58;24.30;99.90
1307;DHT22;646;48.696;9.114;2022-07-29T08:01:23;24.30;99.90
1307;DHT22;646;48.696;9.114;2022-07-29T08:03:49;24.30;99.90
1307;DHT22;646;48.696;9.114;2022-07-29T08:06:15;24.30;99.90
1307;DHT22;646;48.696;9.114;2022-07-29T08:08:41;24.80;99.90
1307;DHT22;646;48.696;9.114;2022-07-29T08:11:06;24.90;99.90
1307;DHT22;646;48.696;9.114;2022-07-29T08:13:32;25.10;99.90
1307;DHT22;646;48.696;9.114;2022-07-29T08:15:59;25.10;99.90
1307;DHT22;646;48.696;9.114;2022-07-29T08:18:27;25.10;99.90
1307;DHT22;646;48.696;9.114;2022-07-29T08:20:53;25.60;99.90
1307;DHT22;646;48.696;9.114;2022-07-29T08:23:18;25.50;99.90
1307;DHT22;646;48.696;9.114;2022-07-29T08:25:48;26.10;99.90
1307;DHT22;646;48.696;9.114;2022-07-29T08:28:14;26.50;99.90
1307;DHT22;646;48.696;9.114;2022-07-29T08:30:40;26.80;99.90
1307;DHT22;646;48.696;9.114;2022-07-29T08:33:05;26.90;99.90
1307;DHT22;646;48.696;9.114;2022-07-29T08:35:31;27.10;99.90
1307;DHT22;646;48.696;9.114;2022-07-29T08:37:57;27.20;99.90
1307;DHT22;646;48.696;9.114;2022-07-29T08:40:23;27.30;99.90
1307;DHT22;646;48.696;9.114;2022-07-29T08:42:50;27.40;98.40
1307;DHT22;646;48.696;9.114;2022-07-29T08:45:16;27.50;96.80
1307;DHT22;646;48.696;9.114;2022-07-29T08:47:44;27.50;94.60
1307;DHT22;646;48.696;9.114;2022-07-29T08:50:10;27.60;97.40
1307;DHT22;646;48.696;9.114;2022-07-29T08:52:38;27.60;98.10
1307;DHT22;646;48.696;9.114;2022-07-29T08:55:08;28.00;99.90
1307;DHT22;646;48.696;9.114;2022-07-29T08:57:34;29.00;99.90
1307;DHT22;646;48.696;9.114;2022-07-29T09:00:03;30.40;97.50
1307;DHT22;646;48.696;9.114;2022-07-29T09:02:35;32.20;88.30
1307;DHT22;646;48.696;9.114;2022-07-29T09:05:04;33.80;71.50
1307;DHT22;646;48.696;9.114;2022-07-29T09:07:30;34.90;64.80
1307;DHT22;646;48.696;9.114;2022-07-29T09:09:56;36.00;58.70
1307;DHT22;646;48.696;9.114;2022-07-29T09:12:22;37.10;50.70
1307;DHT22;646;48.696;9.114;2022-07-29T09:14:50;38.10;53.10
1307;DHT22;646;48.696;9.114;2022-07-29T09:17:15;38.70;48.90
1307;DHT22;646;48.696;9.114;2022-07-29T09:19:43;39.30;49.10
1307;DHT22;646;48.696;9.114;2022-07-29T09:22:08;40.00;45.80
1307;DHT22;646;48.696;9.114;2022-07-29T09:27:29;41.10;37.40
1307;DHT22;646;48.696;9.114;2022-07-29T09:30:05;41.40;40.50
1307;DHT22;646;48.696;9.114;2022-07-29T09:32:35;41.70;41.40
1307;DHT22;646;48.696;9.114;2022-07-29T09:35:19;41.30;41.90
1307;DHT22;646;48.696;9.114;2022-07-29T09:37:46;40.70;40.60
1307;DHT22;646;48.696;9.114;2022-07-29T09:40:17;40.40;42.80
1307;DHT22;646;48.696;9.114;2022-07-29T09:42:43;40.50;43.70
1307;DHT22;646;48.696;9.114;2022-07-29T09:45:09;41.00;42.80
1307;DHT22;646;48.696;9.114;2022-07-29T09:47:46;41.20;40.50
1307;DHT22;646;48.696;9.114;2022-07-29T09:50:14;41.30;41.80
1307;DHT22;646;48.696;9.114;2022-07-29T09:52:50;41.00;40.70
1307;DHT22;646;48.696;9.114;2022-07-29T09:55:17;40.20;42.00
1307;DHT22;646;48.696;9.114;2022-07-29T09:57:44;39.70;42.10
1307;DHT22;646;48.696;9.114;2022-07-29T10:00:13;39.50;44.40
1307;DHT22;646;48.696;9.114;2022-07-29T10:02:40;39.50;43.50
1307;DHT22;646;48.696;9.114;2022-07-29T10:05:22;39.50;44.70
1307;DHT22;646;48.696;9.114;2022-07-29T10:07:51;39.90;42.70
1307;DHT22;646;48.696;9.114;2022-07-29T10:10:25;40.60;42.60
1307;DHT22;646;48.696;9.114;2022-07-29T10:12:53;41.50;42.10
1307;DHT22;646;48.696;9.114;2022-07-29T10:15:21;42.70;41.00
1307;DHT22;646;48.696;9.114;2022-07-29T10:17:47;43.60;41.30
1307;DHT22;646;48.696;9.114;2022-07-29T10:20:13;44.30;39.50
1307;DHT22;646;48.696;9.114;2022-07-29T10:22:40;44.90;36.90
1307;DHT22;646;48.696;9.114;2022-07-29T10:25:07;45.40;27.60
1307;DHT22;646;48.696;9.114;2022-07-29T10:27:32;45.10;27.40
1307;DHT22;646;48.696;9.114;2022-07-29T10:29:59;44.60;30.00
1307;DHT22;646;48.696;9.114;2022-07-29T10:35:15;42.70;30.10
1307;DHT22;646;48.696;9.114;2022-07-29T10:43:43;38.70;38.40
1307;DHT22;646;48.696;9.114;2022-07-29T10:46:11;37.60;41.10
1307;DHT22;646;48.696;9.114;2022-07-29T10:49:06;36.90;44.40
1307;DHT22;646;48.696;9.114;2022-07-29T10:52:00;36.00;43.40
1307;DHT22;646;48.696;9.114;2022-07-29T10:57:31;33.90;42.80
1307;DHT22;646;48.696;9.114;2022-07-29T11:07:24;27.90;53.00
1307;DHT22;646;48.696;9.114;2022-07-29T11:15:13;24.50;63.10
1307;DHT22;646;48.696;9.114;2022-07-29T11:23:21;22.40;77.50
1307;DHT22;646;48.696;9.114;2022-07-29T11:31:33;21.00;95.10
1307;DHT22;646;48.696;9.114;2022-07-29T11:34:18;20.60;99.60
1307;DHT22;646;48.696;9.114;2022-07-29T11:44:56;20.40;99.90
1307;DHT22;646;48.696;9.114;2022-07-29T11:47:22;20.00;99.90
1307;DHT22;646;48.696;9.114;2022-07-29T11:49:49;20.10;99.90
1307;DHT22;646;48.696;9.114;2022-07-29T11:52:20;20.40;99.90
1307;DHT22;646;48.696;9.114;2022-07-29T11:54:49;20.30;99.90
1307;DHT22;646;48.696;9.114;2022-07-29T11:57:17;20.10;99.90
1307;DHT22;646;48.696;9.114;2022-07-29T11:59:44;20.10;99.90
1307;DHT22;646;48.696;9.114;2022-07-29T12:02:10;20.00;99.90
1307;DHT22;646;48.696;9.114;2022-07-29T12:04:55;20.10;99.90
1307;DHT22;646;48.696;9.114;2022-07-29T12:07:30;20.00;99.90
1307;DHT22;646;48.696;9.114;2022-07-29T12:09:56;19.90;99.90
1307;DHT22;646;48.696;9.114;2022-07-29T12:12:22;19.90;99.90
1307;DHT22;646;48.696;9.114;2022-07-29T12:14:48;19.90;99.90
1307;DHT22;646;48.696;9.114;2022-07-29T12:17:30;19.90;99.90
1307;DHT22;646;48.696;9.114;2022-07-29T12:19:58;20.10;99.90
1307;DHT22;646;48.696;9.114;2022-07-29T12:22:37;19.80;99.90
1307;DHT22;646;48.696;9.114;2022-07-29T12:27:31;20.40;99.90
1307;DHT22;646;48.696;9.114;2022-07-29T12:30:06;20.50;99.90
1307;DHT22;646;48.696;9.114;2022-07-29T12:32:40;20.60;99.90
1307;DHT22;646;48.696;9.114;2022-07-29T12:35:25;20.90;99.90
1307;DHT22;646;48.696;9.114;2022-07-29T12:37:51;20.60;99.90
1307;DHT22;646;48.696;9.114;2022-07-29T12:40:18;20.60;99.90
1307;DHT22;646;48.696;9.114;2022-07-29T12:45:39;20.60;99.90
1307;DHT22;646;48.696;9.114;2022-07-29T12:48:05;21.20;99.90
1307;DHT22;646;48.696;9.114;2022-07-29T12:50:34;21.30;99.90
1307;DHT22;646;48.696;9.114;2022-07-29T12:53:11;21.30;99.90
1307;DHT22;646;48.696;9.114;2022-07-29T12:55:40;21.10;99.90
1307;DHT22;646;48.696;9.114;2022-07-29T12:58:07;21.30;99.90
1307;DHT22;646;48.696;9.114;2022-07-29T13:00:33;21.10;99.90
1307;DHT22;646;48.696;9.114;2022-07-29T13:02:59;21.10;99.90
1307;DHT22;646;48.696;9.114;2022-07-29T13:05:43;20.90;99.90
1307;DHT22;646;48.696;9.114;2022-07-29T13:08:25;20.70;99.90
1307;DHT22;646;48.696;9.114;2022-07-29T13:10:50;20.80;99.90
1307;DHT22;646;48.696;9.114;2022-07-29T13:13:16;20.60;99.90
1307;DHT22;646;48.696;9.114;2022-07-29T13:15:43;20.50;99.90
1307;DHT22;646;48.696;9.114;2022-07-29T13:18:31;20.60;99.90
1307;DHT22;646;48.696;9.114;2022-07-29T13:21:11;20.60;99.90
1307;DHT22;646;48.696;9.114;2022-07-29T13:23:37;20.30;99.90
1307;DHT22;646;48.696;9.114;2022-07-29T13:26:07;20.30;99.90
1307;DHT22;646;48.696;9.114;2022-07-29T13:28:33;20.40;99.90
1307;DHT22;646;48.696;9.114;2022-07-29T13:30:59;20.50;99.90
1307;DHT22;646;48.696;9.114;2022-07-29T13:33:25;20.50;99.90
1307;DHT22;646;48.696;9.114;2022-07-29T13:35:50;20.70;99.90
1307;DHT22;646;48.696;9.114;2022-07-29T13:38:16;20.90;99.90
1307;DHT22;646;48.696;9.114;2022-07-29T13:40:42;21.00;99.90
1307;DHT22;646;48.696;9.114;2022-07-29T13:43:11;20.90;99.90
1307;DHT22;646;48.696;9.114;2022-07-29T13:45:37;21.20;99.90
1307;DHT22;646;48.696;9.114;2022-07-29T13:48:02;21.10;99.90
1307;DHT22;646;48.696;9.114;2022-07-29T13:50:28;21.70;99.90
1307;DHT22;646;48.696;9.114;2022-07-29T13:52:54;21.90;99.90
1307;DHT22;646;48.696;9.114;2022-07-29T13:55:19;21.60;99.90
1307;DHT22;646;48.696;9.114;2022-07-29T13:57:45;21.70;99.90
1307;DHT22;646;48.696;9.114;2022-07-29T14:00:12;21.90;99.90
1307;DHT22;646;48.696;9.114;2022-07-29T14:02:38;22.30;99.90
1307;DHT22;646;48.696;9.114;2022-07-29T14:05:04;22.20;99.90
1307;DHT22;646;48.696;9.114;2022-07-29T14:07:30;22.80;99.90
1307;DHT22;646;48.696;9.114;2022-07-29T14:09:56;22.80;99.90
1307;DHT22;646;48.696;9.114;2022-07-29T14:12:22;22.90;99.90
1307;DHT22;646;48.696;9.114;2022-07-29T14:14:47;22.90;99.90
1307;DHT22;646;48.696;9.114;2022-07-29T14:17:14;23.00;99.90
1307;DHT22;646;48.696;9.114;2022-07-29T14:19:39;22.90;99.90
1307;DHT22;646;48.696;9.114;2022-07-29T14:22:06;23.20;99.90
1307;DHT22;646;48.696;9.114;2022-07-29T14:24:32;23.00;99.90
1307;DHT22;646;48.696;9.114;2022-07-29T14:26:58;22.90;99.90
1307;DHT22;646;48.696;9.114;2022-07-29T14:29:24;23.10;99.90
1307;DHT22;646;48.696;9.114;2022-07-29T14:31:49;23.30;99.90
1307;DHT22;646;48.696;9.114;2022-07-29T14:34:15;23.10;99.90
1307;DHT22;646;48.696;9.114;2022-07-29T14:36:41;23.40;99.90
1307;DHT22;646;48.696;9.114;2022-07-29T14:39:06;23.90;99.90
1307;DHT22;646;48.696;9.114;2022-07-29T14:41:32;23.90;99.90
1307;DHT22;646;48.696;9.114;2022-07-29T14:43:58;23.80;99.90
1307;DHT22;646;48.696;9.114;2022-07-29T14:46:26;24.00;99.90
1307;DHT22;646;48.696;9.114;2022-07-29T14:48:52;24.10;99.90
1307;DHT22;646;48.696;9.114;2022-07-29T14:51:17;24.30;99.90
1307;DHT22;646;48.696;9.114;2022-07-29T14:53:43;24.30;99.90
1307;DHT22;646;48.696;9.114;2022-07-29T14:56:09;24.50;99.90
1307;DHT22;646;48.696;9.114;2022-07-29T14:58:34;24.90;99.90
1307;DHT22;646;48.696;9.114;2022-07-29T15:01:00;24.60;99.90
1307;DHT22;646;48.696;9.114;2022-07-29T15:03:26;24.90;99.90
1307;DHT22;646;48.696;9.114;2022-07-29T15:05:53;25.20;99.90
1307;DHT22;646;48.696;9.114;2022-07-29T15:08:19;25.00;99.90
1307;DHT22;646;48.696;9.114;2022-07-29T15:10:45;25.30;99.90
1307;DHT22;646;48.696;9.114;2022-07-29T15:13:10;25.40;99.90
1307;DHT22;646;48.696;9.114;2022-07-29T15:15:36;25.00;99.90
1307;DHT22;646;48.696;9.114;2022-07-29T15:18:01;25.30;99.90
1307;DHT22;646;48.696;9.114;2022-07-29T15:20:27;25.20;99.90
1307;DHT22;646;48.696;9.114;2022-07-29T15:22:54;25.20;99.90
1307;DHT22;646;48.696;9.114;2022-07-29T15:25:21;24.90;99.90
1307;DHT22;646;48.696;9.114;2022-07-29T15:27:47;25.10;99.90
1307;DHT22;646;48.696;9.114;2022-07-29T15:30:12;25.10;99.90
1307;DHT22;646;48.696;9.114;2022-07-29T15:32:38;24.80;99.90
1307;DHT22;646;48.696;9.114;2022-07-29T15:35:03;25.20;99.90
1307;DHT22;646;48.696;9.114;2022-07-29T15:37:29;24.70;99.90
1307;DHT22;646;48.696;9.114;2022-07-29T15:39:55;25.00;99.90
1307;DHT22;646;48.696;9.114;2022-07-29T15:42:21;24.70;99.90
1307;DHT22;646;48.696;9.114;2022-07-29T15:44:46;24.90;99.90
1307;DHT22;646;48.696;9.114;2022-07-29T15:47:11;24.80;99.90
1307;DHT22;646;48.696;9.114;2022-07-29T15:49:40;24.80;99.90
1307;DHT22;646;48.696;9.114;2022-07-29T15:52:08;24.90;99.90
1307;DHT22;646;48.696;9.114;2022-07-29T15:54:35;24.60;99.90
1307;DHT22;646;48.696;9.114;2022-07-29T15:57:02;24.40;99.90
1307;DHT22;646;48.696;9.114;2022-07-29T15:59:28;24.70;99.90
1307;DHT22;646;48.696;9.114;2022-07-29T16:01:54;25.00;99.90
1307;DHT22;646;48.696;9.114;2022-07-29T16:04:20;24.90;99.90
1307;DHT22;646;48.696;9.114;2022-07-29T16:06:46;24.70;99.90
1307;DHT22;646;48.696;9.114;2022-07-29T16:09:13;24.70;99.90
1307;DHT22;646;48.696;9.114;2022-07-29T16:11:39;24.70;99.90
1307;DHT22;646;48.696;9.114;2022-07-29T16:14:05;24.50;99.90
1307;DHT22;646;48.696;9.114;2022-07-29T16:16:31;25.00;99.90
1307;DHT22;646;48.696;9.114;2022-07-29T16:18:56;24.70;99.90
1307;DHT22;646;48.696;9.114;2022-07-29T16:21:22;24.80;99.90
1307;DHT22;646;48.696;9.114;2022-07-29T16:23:48;24.90;99.90
1307;DHT22;646;48.696;9.114;2022-07-29T16:26:14;24.80;99.90
1307;DHT22;646;48.696;9.114;2022-07-29T16:28:39;24.90;99.90
1307;DHT22;646;48.696;9.114;2022-07-29T16:31:05;25.20;99.90
1307;DHT22;646;48.696;9.114;2022-07-29T16:33:30;24.70;99.90
1307;DHT22;646;48.696;9.114;2022-07-29T16:35:56;25.00;99.90
1307;DHT22;646;48.696;9.114;2022-07-29T16:38:21;25.20;99.90
1307;DHT22;646;48.696;9.114;2022-07-29T16:40:47;25.10;99.90
1307;DHT22;646;48.696;9.114;2022-07-29T16:43:13;24.90;99.90
1307;DHT22;646;48.696;9.114;2022-07-29T16:45:38;24.70;99.90
1307;DHT22;646;48.696;9.114;2022-07-29T16:48:04;24.70;99.90
1307;DHT22;646;48.696;9.114;2022-07-29T16:50:31;25.00;99.90
1307;DHT22;646;48.696;9.114;2022-07-29T16:52:57;24.90;99.90
1307;DHT22;646;48.696;9.114;2022-07-29T16:55:22;24.50;99.90
1307;DHT22;646;48.696;9.114;2022-07-29T16:57:48;24.50;99.90
1307;DHT22;646;48.696;9.114;2022-07-29T17:00:15;24.50;99.90
1307;DHT22;646;48.696;9.114;2022-07-29T17:02:41;24.10;99.90
1307;DHT22;646;48.696;9.114;2022-07-29T17:05:07;24.00;99.90
1307;DHT22;646;48.696;9.114;2022-07-29T17:07:33;24.00;99.90
1307;DHT22;646;48.696;9.114;2022-07-29T17:09:59;24.30;99.90
1307;DHT22;646;48.696;9.114;2022-07-29T17:12:25;23.90;99.90
1307;DHT22;646;48.696;9.114;2022-07-29T17:14:51;24.00;99.90
1307;DHT22;646;48.696;9.114;2022-07-29T17:17:17;23.70;99.90
1307;DHT22;646;48.696;9.114;2022-07-29T17:19:42;23.90;99.90